Time;durP1;ratioP1;P1;durP2;ratioP2;P2;SDS_P1;SDS_P2;PMS_P1;PMS_P2;Temp;Humidity;BMP_temperature;BMP_pressure;BME280_temperature;BME280_humidity;BME280_pressure;Samples;Min_cycle;Max_cycle;Signal;HPM_P1;HPM_P2
2022/07/04 00:00:53;;;;;;;23.52;13.98;;;717.40;2432.00;;;;;;5092358;28;20035;-84
2022/07/04 00:03:19;;;;;;;18.65;12.95;;;717.20;2432.00;;;;;;5092552;28;20457;-85
2022/07/04 00:05:45;;;;;;;20.17;13.45;;;717.00;2432.00;;;;;;5092256;28;20093;-83
2022/07/04 00:08:11;;;;;;;22.45;12.90;;;716.80;2432.00;;;;;;5091840;28;20030;-83
2022/07/04 00:10:36;;;;;;;17.23;13.05;;;692.10;2432.00;;;;;;5092389;28;20024;-83
2022/07/04 00:13:02;;;;;;;28.40;14.68;;;692.00;2432.00;;;;;;5095117;28;20469;-83
2022/07/04 00:15:28;;;;;;;18.83;13.13;;;691.80;2432.00;;;;;;5095596;28;20388;-83
2022/07/04 00:17:54;;;;;;;17.20;12.27;;;691.80;2432.00;;;;;;5094787;28;20077;-84
2022/07/04 00:20:19;;;;;;;18.52;14.02;;;691.70;2432.00;;;;;;5095496;28;20015;-82
2022/07/04 00:22:45;;;;;;;18.23;13.63;;;691.70;2432.00;;;;;;5095224;28;20057;-84
2022/07/04 00:25:11;;;;;;;28.27;13.68;;;691.90;2432.00;;;;;;5113001;28;20473;-83
2022/07/04 00:27:37;;;;;;;19.60;13.48;;;692.10;2432.00;;;;;;5095330;28;20023;-83
2022/07/04 00:30:04;;;;;;;20.58;13.50;;;691.90;2432.00;;;;;;5095036;28;20032;-84
2022/07/04 00:32:30;;;;;;;19.30;13.05;;;691.80;2432.00;;;;;;5095279;28;20065;-84
2022/07/04 00:34:56;;;;;;;18.02;14.18;;;692.00;2432.00;;;;;;5094999;28;20027;-83
2022/07/04 00:37:22;;;;;;;28.58;14.20;;;692.10;2432.00;;;;;;5095299;28;20024;-85
2022/07/04 00:39:48;;;;;;;23.13;15.13;;;691.90;2432.00;;;;;;5095373;28;20106;-84
2022/07/04 00:42:13;;;;;;;20.67;14.18;;;692.10;2432.00;;;;;;5095337;28;20016;-84
2022/07/04 00:44:39;;;;;;;26.50;14.57;;;692.10;2432.00;;;;;;5103473;28;20030;-84
2022/07/04 00:47:06;;;;;;;19.48;14.40;;;692.10;2432.00;;;;;;5127343;28;20015;-83
2022/07/04 00:49:32;;;;;;;20.42;14.88;;;691.90;2432.00;;;;;;5094658;28;20023;-82
2022/07/04 00:51:59;;;;;;;18.17;13.45;;;691.70;2432.00;;;;;;5095114;28;20016;-83
2022/07/04 00:54:27;;;;;;;21.60;14.07;;;691.70;2432.00;;;;;;5094491;28;20032;-83
2022/07/04 00:56:55;;;;;;;19.13;14.27;;;691.90;2432.00;;;;;;5094865;28;20516;-84
2022/07/04 00:59:22;;;;;;;17.17;15.10;;;692.00;2432.00;;;;;;5095081;28;20465;-83
2022/07/04 01:01:48;;;;;;;23.23;14.02;;;692.00;2432.00;;;;;;5094627;28;20022;-85
2022/07/04 01:04:14;;;;;;;15.00;13.10;;;692.00;2432.00;;;;;;5095035;28;20016;-83
2022/07/04 01:06:40;;;;;;;22.67;14.05;;;691.80;2432.00;;;;;;5095927;28;20136;-82
2022/07/04 01:09:06;;;;;;;17.10;12.60;;;691.70;2432.00;;;;;;5099009;28;20475;-84
2022/07/04 01:11:32;;;;;;;20.77;13.55;;;691.70;2432.00;;;;;;5098910;28;20389;-84
2022/07/04 01:13:58;;;;;;;19.35;14.52;;;691.70;2432.00;;;;;;5098875;28;20047;-85
2022/07/04 01:16:25;;;;;;;20.00;13.32;;;691.70;2432.00;;;;;;5098835;28;20020;-82
2022/07/04 01:18:52;;;;;;;21.52;13.48;;;691.70;2432.00;;;;;;5107120;27;20023;-84
2022/07/04 01:21:17;;;;;;;26.38;14.07;;;691.50;2432.00;;;;;;5098400;28;20069;-84
2022/07/04 01:23:43;;;;;;;20.58;14.45;;;691.30;2432.00;;;;;;5116546;28;20022;-82
2022/07/04 01:26:09;;;;;;;17.98;13.80;;;666.50;2432.00;;;;;;5098799;28;20031;-83
2022/07/04 01:28:35;;;;;;;21.88;15.13;;;666.30;2432.00;;;;;;5098418;28;20095;-84
2022/07/04 01:31:01;;;;;;;20.70;13.98;;;666.30;2432.00;;;;;;5116578;28;20469;-81
2022/07/04 01:33:27;;;;;;;19.40;13.73;;;666.20;2432.00;;;;;;5098245;28;20019;-83
2022/07/04 01:35:52;;;;;;;20.63;13.95;;;666.00;2432.00;;;;;;5098326;28;20015;-83
2022/07/04 01:38:18;;;;;;;19.70;13.90;;;666.20;2432.00;;;;;;5098289;28;20053;-78
2022/07/04 01:40:45;;;;;;;23.42;15.07;;;666.50;2432.00;;;;;;5098546;28;20027;-81
2022/07/04 01:43:10;;;;;;;24.08;14.70;;;691.30;2432.00;;;;;;5098514;28;20020;-83
2022/07/04 01:45:39;;;;;;;20.00;14.45;;;666.50;2432.00;;;;;;5097347;28;20492;-84
2022/07/04 01:48:09;;;;;;;23.10;14.32;;;666.30;2432.00;;;;;;5106573;27;20019;-83
2022/07/04 01:50:35;;;;;;;19.42;14.02;;;666.30;2432.00;;;;;;5113706;28;20104;-85
2022/07/04 01:53:02;;;;;;;19.80;14.93;;;666.40;2432.00;;;;;;5116378;28;20094;-86
2022/07/04 01:55:29;;;;;;;21.27;14.60;;;666.50;2432.00;;;;;;5097698;28;20039;-85
2022/07/04 01:57:55;;;;;;;21.63;14.52;;;691.30;2432.00;;;;;;5098225;28;20015;-86
2022/07/04 02:03:06;;;;;;;18.77;14.55;;;666.40;2432.00;;;;;;5128385;27;20830;-86
2022/07/04 02:05:32;;;;;;;20.77;15.25;;;666.50;2432.00;;;;;;5133015;27;20036;-85
2022/07/04 02:07:58;;;;;;;20.73;15.10;;;691.20;2432.00;;;;;;5097426;28;20175;-86
2022/07/04 02:10:24;;;;;;;23.13;15.50;;;691.30;2432.00;;;;;;5098086;28;20496;-86
2022/07/04 02:13:02;;;;;;;19.15;14.13;;;691.30;2432.00;;;;;;5097756;28;20012;-86
2022/07/04 02:15:39;;;;;;;23.10;14.65;;;691.20;2432.00;;;;;;5115778;28;20020;-85
2022/07/04 02:18:06;;;;;;;27.20;14.27;;;666.50;2432.00;;;;;;5096755;28;20065;-85
2022/07/04 02:20:33;;;;;;;22.67;13.95;;;666.50;2432.00;;;;;;5097170;28;20062;-85
2022/07/04 02:22:59;;;;;;;16.65;14.90;;;691.20;2432.00;;;;;;5097709;28;20059;-84
2022/07/04 02:25:26;;;;;;;25.55;14.73;;;691.20;2432.00;;;;;;5097139;28;20126;-84
2022/07/04 02:27:51;;;;;;;19.30;14.27;;;665.90;2432.00;;;;;;5115862;28;20476;-86
2022/07/04 02:30:17;;;;;;;21.20;14.80;;;666.40;2432.00;;;;;;5097560;28;20103;-85
2022/07/04 02:32:43;;;;;;;16.90;13.88;;;666.50;2432.00;;;;;;5097188;28;20024;-82
2022/07/04 02:35:10;;;;;;;24.17;14.75;;;691.40;2432.00;;;;;;5115688;28;20028;-85
2022/07/04 02:37:36;;;;;;;22.42;15.27;;;691.20;2432.00;;;;;;5097259;28;20131;-86
2022/07/04 02:40:03;;;;;;;20.00;14.25;;;666.50;2432.00;;;;;;5097258;28;20468;-86
2022/07/04 02:42:30;;;;;;;30.63;14.85;;;691.20;2432.00;;;;;;5097066;28;20027;-85
2022/07/04 02:44:56;;;;;;;19.40;14.50;;;691.60;2432.00;;;;;;5100296;27;20031;-85
2022/07/04 02:47:22;;;;;;;23.20;15.35;;;691.20;2432.00;;;;;;5097130;28;20011;-85
2022/07/04 02:49:47;;;;;;;20.92;14.35;;;691.20;2432.00;;;;;;5097212;28;20024;-85
2022/07/04 02:52:13;;;;;;;17.80;15.50;;;691.20;2432.00;;;;;;5094204;28;20024;-86
2022/07/04 02:54:39;;;;;;;22.55;14.98;;;691.30;2432.00;;;;;;5096713;28;20477;-85
2022/07/04 02:57:05;;;;;;;18.70;14.40;;;691.20;2432.00;;;;;;5096889;28;20151;-85
2022/07/04 02:59:31;;;;;;;26.23;14.13;;;691.30;2432.00;;;;;;5096593;28;20103;-85
2022/07/04 03:01:57;;;;;;;22.30;15.40;;;691.30;2432.00;;;;;;5097219;28;20048;-84
2022/07/04 03:04:22;;;;;;;17.10;14.95;;;691.40;2432.00;;;;;;5114877;28;20029;-85
2022/07/04 03:06:48;;;;;;;21.67;13.93;;;691.40;2432.00;;;;;;5097547;28;20468;-85
2022/07/04 03:09:14;;;;;;;20.50;13.77;;;691.30;2432.00;;;;;;5097219;28;20054;-85
2022/07/04 03:11:40;;;;;;;21.45;13.85;;;691.30;2432.00;;;;;;5096605;28;20028;-85
2022/07/04 03:14:05;;;;;;;17.98;13.23;;;691.50;2432.00;;;;;;5114534;28;20886;-85
2022/07/04 03:16:31;;;;;;;21.77;14.43;;;691.50;2432.00;;;;;;5116846;28;20011;-81
2022/07/04 03:18:57;;;;;;;22.85;14.40;;;691.30;2432.00;;;;;;5119216;28;19996;-80
2022/07/04 03:21:22;;;;;;;17.58;13.02;;;691.40;2432.00;;;;;;5125075;27;20122;-84
2022/07/04 03:23:57;;;;;;;21.00;12.57;;;691.40;2432.00;;;;;;5105553;27;20106;-84
2022/07/04 03:26:29;;;;;;;20.20;14.60;;;691.30;2432.00;;;;;;5103990;28;20031;-84
2022/07/04 03:28:55;;;;;;;15.63;12.57;;;691.40;2432.00;;;;;;5113742;28;20019;-85
2022/07/04 03:31:21;;;;;;;19.15;12.27;;;691.30;2432.00;;;;;;5096169;28;20060;-85
2022/07/04 03:33:47;;;;;;;20.77;13.43;;;691.30;2432.00;;;;;;5109600;27;20015;-79
2022/07/04 03:36:12;;;;;;;21.80;13.50;;;691.30;2432.00;;;;;;5102650;28;20028;-85
2022/07/04 03:38:38;;;;;;;18.33;13.23;;;691.40;2432.00;;;;;;5093504;28;20019;-83
2022/07/04 03:41:04;;;;;;;19.67;12.52;;;691.60;2432.00;;;;;;5096080;28;20027;-84
2022/07/04 03:43:29;;;;;;;19.88;11.80;;;691.60;2432.00;;;;;;5096320;28;20415;-86
2022/07/04 03:45:55;;;;;;;18.77;13.25;;;691.60;2432.00;;;;;;5096040;28;20057;-84
2022/07/04 03:48:21;;;;;;;20.80;12.70;;;691.60;2432.00;;;;;;5096365;28;20055;-80
2022/07/04 03:50:47;;;;;;;23.70;12.13;;;691.60;2432.00;;;;;;5113978;28;20052;-79
2022/07/04 03:53:12;;;;;;;20.88;12.77;;;691.70;2432.00;;;;;;5096708;28;20019;-85
2022/07/04 03:55:39;;;;;;;19.83;13.18;;;691.60;2432.00;;;;;;5113449;28;20075;-82
2022/07/04 03:58:05;;;;;;;19.45;13.50;;;691.60;2432.00;;;;;;5113311;28;20051;-81
2022/07/04 04:00:32;;;;;;;26.13;14.23;;;691.70;2432.00;;;;;;5113742;28;20035;-88
2022/07/04 04:02:58;;;;;;;20.55;13.98;;;691.60;2432.00;;;;;;5095678;28;20020;-81
2022/07/04 04:05:30;;;;;;;21.63;12.50;;;691.60;2432.00;;;;;;5096154;28;20044;-87
2022/07/04 04:08:00;;;;;;;24.95;14.93;;;691.50;2432.00;;;;;;5095668;28;20028;-84
2022/07/04 04:10:28;;;;;;;23.27;15.25;;;691.30;2432.00;;;;;;5095587;28;20110;-80
2022/07/04 04:12:54;;;;;;;21.45;13.70;;;691.30;2432.00;;;;;;5095408;28;20389;-84
2022/07/04 04:15:20;;;;;;;21.05;13.48;;;691.50;2432.00;;;;;;5095225;28;20020;-85
2022/07/04 04:17:45;;;;;;;17.55;12.88;;;691.60;2432.00;;;;;;5095735;28;20555;-86
2022/07/04 04:20:11;;;;;;;23.48;15.23;;;691.60;2432.00;;;;;;5095209;28;20477;-85
2022/07/04 04:22:37;;;;;;;19.60;14.10;;;691.70;2432.00;;;;;;5095422;28;20423;-82
2022/07/04 04:25:03;;;;;;;21.98;13.73;;;691.70;2432.00;;;;;;5095439;28;20032;-89
2022/07/04 04:27:29;;;;;;;18.67;13.25;;;691.70;2432.00;;;;;;5095948;28;20023;-90
2022/07/04 04:29:55;;;;;;;20.58;13.88;;;691.70;2432.00;;;;;;5095820;28;20012;-91
2022/07/04 04:32:21;;;;;;;19.45;12.60;;;691.70;2432.00;;;;;;5098160;27;20051;-85
2022/07/04 04:34:47;;;;;;;19.02;13.65;;;691.70;2432.00;;;;;;5094837;28;20039;-82
2022/07/04 04:37:13;;;;;;;22.98;13.15;;;691.70;2432.00;;;;;;5094917;28;20023;-84
2022/07/04 04:39:39;;;;;;;29.58;13.45;;;691.70;2432.00;;;;;;5094979;28;20395;-85
2022/07/04 04:42:04;;;;;;;23.48;14.73;;;691.60;2432.00;;;;;;5094770;28;20024;-81
2022/07/04 04:44:30;;;;;;;31.40;15.43;;;691.70;2432.00;;;;;;5094346;28;20028;-86
2022/07/04 04:46:56;;;;;;;26.50;14.32;;;691.70;2432.00;;;;;;5094515;28;20027;-80
2022/07/04 04:49:22;;;;;;;23.50;17.75;;;691.60;2432.00;;;;;;5091860;28;20011;-89
2022/07/04 04:51:47;;;;;;;23.88;18.15;;;691.30;2432.00;;;;;;5112941;28;20496;-79
2022/07/04 04:54:13;;;;;;;21.38;16.45;;;691.30;2432.00;;;;;;5113418;28;20032;-87
2022/07/04 04:56:39;;;;;;;23.65;16.60;;;691.30;2432.00;;;;;;5095014;28;20518;-84
2022/07/04 04:59:05;;;;;;;85.38;22.45;;;691.30;2432.00;;;;;;5095444;28;20106;-85
2022/07/04 05:01:30;;;;;;;49.33;18.05;;;691.40;2432.00;;;;;;5093839;28;20028;-84
2022/07/04 05:03:56;;;;;;;36.42;16.63;;;691.60;2432.00;;;;;;5094729;28;20598;-84
2022/07/04 05:06:22;;;;;;;22.58;16.17;;;691.70;2432.00;;;;;;5094648;28;20027;-83
2022/07/04 05:08:48;;;;;;;28.48;15.95;;;691.70;2432.00;;;;;;5094333;28;20024;-82
2022/07/04 05:11:14;;;;;;;20.45;15.20;;;691.80;2432.00;;;;;;5094961;28;20077;-84
2022/07/04 05:13:40;;;;;;;26.17;14.93;;;691.90;2432.00;;;;;;5094315;28;20337;-83
2022/07/04 05:16:06;;;;;;;27.20;15.75;;;691.90;2432.00;;;;;;5094636;28;20430;-84
2022/07/04 05:18:32;;;;;;;20.42;15.15;;;692.10;2432.00;;;;;;5094423;28;20019;-82
2022/07/04 05:20:58;;;;;;;35.35;16.10;;;716.80;2432.00;;;;;;5094737;28;20020;-85
2022/07/04 05:23:24;;;;;;;18.40;13.95;;;716.90;2432.00;;;;;;5091677;28;20011;-84
2022/07/04 05:25:50;;;;;;;25.60;14.25;;;716.90;2432.00;;;;;;5093859;28;20549;-78
2022/07/04 05:28:16;;;;;;;20.75;13.90;;;717.10;2432.00;;;;;;5094267;28;20039;-83
2022/07/04 05:30:42;;;;;;;19.40;13.80;;;717.00;2432.00;;;;;;5090050;28;20394;-81
2022/07/04 05:33:08;;;;;;;20.70;14.02;;;717.00;2432.00;;;;;;5093445;28;20039;-86
2022/07/04 05:35:34;;;;;;;25.15;13.95;;;717.00;2432.00;;;;;;5111574;28;20067;-85
2022/07/04 05:38:00;;;;;;;28.25;14.38;;;692.00;2432.00;;;;;;5106691;28;20034;-83
2022/07/04 05:40:26;;;;;;;21.10;14.50;;;717.00;2432.00;;;;;;5083270;28;20036;-82
2022/07/04 05:42:51;;;;;;;20.05;14.07;;;717.10;2432.00;;;;;;5094974;28;20519;-83
2022/07/04 05:45:17;;;;;;;34.13;13.52;;;717.10;2432.00;;;;;;5094747;28;20114;-84
2022/07/04 05:47:44;;;;;;;22.33;13.73;;;717.20;2432.00;;;;;;5094796;28;20020;-85
2022/07/04 05:50:10;;;;;;;22.88;13.05;;;717.20;2432.00;;;;;;5090108;28;20024;-84
2022/07/04 05:52:36;;;;;;;19.10;12.98;;;717.20;2432.00;;;;;;5086563;28;20027;-83
2022/07/04 05:55:03;;;;;;;27.98;13.15;;;717.30;2432.00;;;;;;5101819;28;20042;-83
2022/07/04 05:57:28;;;;;;;21.30;12.65;;;717.30;2432.00;;;;;;5098109;28;20034;-84
2022/07/04 05:59:54;;;;;;;23.80;13.63;;;717.40;2432.00;;;;;;5098093;28;20023;-82
2022/07/04 06:02:20;;;;;;;22.13;13.18;;;717.60;2432.00;;;;;;5085480;28;20020;-84
2022/07/04 06:04:46;;;;;;;23.35;11.95;;;717.70;2432.00;;;;;;5096241;28;20023;-81
2022/07/04 06:07:11;;;;;;;19.67;11.68;;;742.40;2432.00;;;;;;5087460;28;20028;-82
2022/07/04 06:09:37;;;;;;;15.68;11.73;;;742.50;2432.00;;;;;;5093940;28;20034;-82
2022/07/04 06:12:04;;;;;;;17.98;12.05;;;742.60;2406.40;;;;;;5114516;28;20032;-85
2022/07/04 06:14:30;;;;;;;14.75;11.48;;;742.70;2406.40;;;;;;5112286;27;20050;-88
2022/07/04 06:16:56;;;;;;;17.50;11.48;;;742.80;2406.40;;;;;;5111035;28;20055;-80
2022/07/04 06:19:21;;;;;;;18.58;11.75;;;742.90;2355.20;;;;;;5097779;28;20047;-82
2022/07/04 06:21:47;;;;;;;20.35;11.25;;;742.90;2304.00;;;;;;5100275;28;20036;-82
2022/07/04 06:24:14;;;;;;;18.40;10.40;;;743.00;2278.40;;;;;;5115376;28;20553;-83
2022/07/04 06:26:40;;;;;;;20.20;10.68;;;743.10;2227.20;;;;;;5097693;28;20117;-82
2022/07/04 06:29:05;;;;;;;20.02;11.55;;;743.30;2278.40;;;;;;5097296;28;20072;-84
2022/07/04 06:31:31;;;;;;;16.83;10.68;;;743.30;2176.00;;;;;;5097975;28;20027;-82
2022/07/04 06:36:42;;;;;;;18.95;10.02;;;768.10;2073.60;;;;;;5115855;28;20027;-82
2022/07/04 06:39:08;;;;;;;13.95;9.95;;;768.20;2022.40;;;;;;5089813;28;20028;-83
2022/07/04 06:41:33;;;;;;;18.48;9.23;;;768.30;2048.00;;;;;;5092793;28;20139;-81
2022/07/04 06:43:59;;;;;;;14.25;8.90;;;768.40;2048.00;;;;;;5128399;28;20093;-84
2022/07/04 06:46:25;;;;;;;13.55;9.57;;;768.50;1971.20;;;;;;5085603;28;20448;-85
2022/07/04 06:48:51;;;;;;;16.15;9.50;;;768.60;1920.00;;;;;;5108967;28;20401;-84
2022/07/04 06:51:17;;;;;;;13.00;8.82;;;768.70;1894.40;;;;;;5096827;28;20028;-83
2022/07/04 06:53:43;;;;;;;15.25;9.05;;;768.80;1894.40;;;;;;5096687;28;20044;-84
2022/07/04 06:56:09;;;;;;;16.20;8.93;;;768.90;1894.40;;;;;;5100258;27;20560;-85
2022/07/04 06:58:34;;;;;;;13.52;9.60;;;768.90;1868.80;;;;;;5098225;28;20538;-83
2022/07/04 07:01:00;;;;;;;12.00;9.50;;;768.90;1894.40;;;;;;5092074;28;20024;-83
2022/07/04 07:03:27;;;;;;;15.30;8.60;;;768.90;1843.20;;;;;;5097034;28;20124;-82
2022/07/04 07:05:53;;;;;;;14.32;8.77;;;793.60;1894.40;;;;;;5113737;28;20067;-83
2022/07/04 07:08:18;;;;;;;16.90;8.93;;;793.70;1843.20;;;;;;5113625;28;20053;-80
2022/07/04 07:10:44;;;;;;;14.55;9.00;;;793.90;1817.60;;;;;;5114037;28;20358;-87
2022/07/04 07:13:10;;;;;;;13.20;9.25;;;794.00;1817.60;;;;;;5096867;28;20418;-85
2022/07/04 07:15:36;;;;;;;18.05;9.05;;;794.10;1792.00;;;;;;5096844;28;20122;-80
2022/07/04 07:18:03;;;;;;;13.13;9.25;;;794.20;1740.80;;;;;;5128537;27;20473;-81
2022/07/04 07:20:29;;;;;;;15.52;8.95;;;794.20;1766.40;;;;;;5088373;28;20024;-80
2022/07/04 07:22:55;;;;;;;13.82;8.48;;;794.30;1766.40;;;;;;5089515;28;20024;-80
2022/07/04 07:25:21;;;;;;;16.25;8.98;;;794.50;1766.40;;;;;;5099581;28;20042;-80
2022/07/04 07:27:46;;;;;;;13.27;9.25;;;794.50;1715.20;;;;;;5112752;28;20465;-80
2022/07/04 07:30:12;;;;;;;13.70;9.48;;;819.30;1766.40;;;;;;5111073;28;20028;-80
2022/07/04 07:32:38;;;;;;;16.65;9.30;;;819.30;1740.80;;;;;;5095459;28;20026;-81
2022/07/04 07:35:04;;;;;;;16.15;10.32;;;819.40;1766.40;;;;;;5095796;28;20104;-82
2022/07/04 07:37:30;;;;;;;13.07;8.68;;;819.50;1689.60;;;;;;5087533;28;20062;-81
2022/07/04 07:39:56;;;;;;;13.10;9.52;;;819.60;1740.80;;;;;;5089744;28;20112;-80
2022/07/04 07:42:24;;;;;;;17.85;8.52;;;819.80;1715.20;;;;;;5112849;28;20019;-81
2022/07/04 07:44:50;;;;;;;18.90;8.55;;;819.90;1638.40;;;;;;5095519;28;20416;-81
2022/07/04 07:47:15;;;;;;;14.45;8.38;;;820.00;1638.40;;;;;;5095353;28;20020;-80
2022/07/04 07:49:42;;;;;;;20.65;8.60;;;820.10;1638.40;;;;;;5095216;28;20027;-80
2022/07/04 07:52:08;;;;;;;13.50;8.85;;;820.10;1612.80;;;;;;5095347;28;20019;-80
2022/07/04 07:54:34;;;;;;;11.40;7.50;;;844.80;1612.80;;;;;;5094885;28;20035;-80
2022/07/04 07:57:00;;;;;;;14.25;7.70;;;845.20;1561.60;;;;;;5101610;27;20047;-80
2022/07/04 07:59:26;;;;;;;12.23;7.60;;;844.90;1561.60;;;;;;5098497;28;20028;-81
2022/07/04 08:01:51;;;;;;;13.15;7.43;;;845.10;1536.00;;;;;;5103983;27;20486;-80
2022/07/04 08:04:35;;;;;;;15.07;7.68;;;845.20;1561.60;;;;;;5118851;27;20100;-79
2022/07/04 08:07:09;;;;;;;12.60;7.72;;;845.20;1561.60;;;;;;5111877;28;20038;-80
2022/07/04 08:09:36;;;;;;;14.30;6.68;;;845.20;1536.00;;;;;;5094718;28;20447;-80
2022/07/04 08:12:04;;;;;;;12.38;6.72;;;845.20;1510.40;;;;;;5086557;28;20024;-80
2022/07/04 08:14:30;;;;;;;10.50;6.68;;;845.40;1510.40;;;;;;5103172;28;20448;-79
2022/07/04 08:16:57;;;;;;;10.70;6.50;;;845.50;1510.40;;;;;;5095004;28;20302;-81
2022/07/04 08:19:24;;;;;;;11.13;6.13;;;845.50;1459.20;;;;;;5094550;28;20032;-84
2022/07/04 08:21:50;;;;;;;10.80;6.28;;;845.70;1433.60;;;;;;5113087;28;20018;-80
2022/07/04 08:24:16;;;;;;;18.80;6.53;;;845.70;1408.00;;;;;;5094755;28;20043;-81
2022/07/04 08:26:42;;;;;;;14.35;4.82;;;845.70;1433.60;;;;;;5098005;28;20024;-81
2022/07/04 08:29:08;;;;;;;6.80;4.95;;;870.40;1331.20;;;;;;5111760;28;20384;-82
2022/07/04 08:31:34;;;;;;;10.27;5.57;;;870.60;1305.60;;;;;;5081017;28;20020;-83
2022/07/04 08:34:00;;;;;;;6.82;4.78;;;870.70;1280.00;;;;;;5094400;28;20172;-82
2022/07/04 08:36:25;;;;;;;9.30;4.63;;;870.90;1305.60;;;;;;5094907;28;20030;-81
2022/07/04 08:38:51;;;;;;;10.85;5.38;;;871.00;1280.00;;;;;;5094875;28;20023;-80
2022/07/04 08:41:18;;;;;;;7.20;4.53;;;871.00;1254.40;;;;;;5094437;28;20169;-83
2022/07/04 08:43:48;;;;;;;7.80;4.63;;;871.10;1228.80;;;;;;5094719;28;20102;-78
2022/07/04 08:46:18;;;;;;;6.75;4.90;;;871.00;1228.80;;;;;;5112741;28;20499;-82
2022/07/04 08:48:51;;;;;;;7.30;5.18;;;871.10;1254.40;;;;;;5094685;28;20054;-85
2022/07/04 08:51:29;;;;;;;7.82;5.18;;;870.90;1254.40;;;;;;5106213;28;20098;-83
2022/07/04 08:53:57;;;;;;;20.95;6.05;;;871.00;1254.40;;;;;;5097854;28;20023;-82
2022/07/04 08:59:08;;;;;;;7.80;4.82;;;871.00;1254.40;;;;;;5113335;28;20059;-85
2022/07/04 09:01:35;;;;;;;8.13;5.35;;;871.10;1228.80;;;;;;5101585;28;20033;-84
2022/07/04 09:04:01;;;;;;;8.68;4.68;;;871.10;1203.20;;;;;;5103131;28;20032;-86
2022/07/04 09:06:29;;;;;;;9.35;4.90;;;871.10;1228.80;;;;;;5095290;28;20032;-83
2022/07/04 09:08:54;;;;;;;6.95;4.60;;;871.10;1228.80;;;;;;5102883;28;20058;-86
2022/07/04 09:11:20;;;;;;;8.68;4.38;;;871.10;1203.20;;;;;;5090771;28;20055;-82
2022/07/04 09:13:47;;;;;;;6.80;4.85;;;871.10;1203.20;;;;;;5094878;28;20016;-83
2022/07/04 09:16:12;;;;;;;7.22;4.93;;;871.10;1228.80;;;;;;5094347;28;20028;-81
2022/07/04 09:18:38;;;;;;;7.57;4.45;;;871.10;1228.80;;;;;;5111995;28;20376;-83
2022/07/04 09:21:09;;;;;;;8.85;4.95;;;870.90;1228.80;;;;;;5111391;28;20462;-83
2022/07/04 09:23:39;;;;;;;8.75;5.07;;;871.10;1228.80;;;;;;5094900;28;20015;-82
2022/07/04 09:26:20;;;;;;;9.68;4.38;;;871.10;1203.20;;;;;;5112913;28;20052;-79
2022/07/04 09:28:57;;;;;;;13.25;4.70;;;871.30;1203.20;;;;;;5098426;28;20038;-86
2022/07/04 09:31:25;;;;;;;6.32;4.30;;;871.30;1177.60;;;;;;5113169;27;20548;-84
2022/07/04 09:34:05;;;;;;;6.38;4.55;;;896.10;1177.60;;;;;;5116926;28;20019;-84
2022/07/04 09:36:33;;;;;;;8.75;4.55;;;896.20;1177.60;;;;;;5096212;28;20481;-86
2022/07/04 09:39:20;;;;;;;6.97;4.45;;;896.50;1177.60;;;;;;5110411;28;20036;-84
2022/07/04 09:42:04;;;;;;;11.05;4.75;;;896.60;1152.00;;;;;;5079275;28;20028;-82
2022/07/04 09:44:45;;;;;;;8.13;4.40;;;896.80;1126.40;;;;;;5109115;28;20020;-85
2022/07/04 09:47:27;;;;;;;7.25;4.18;;;896.90;1126.40;;;;;;5116654;28;20019;-85
2022/07/04 09:50:08;;;;;;;8.10;4.97;;;921.70;1126.40;;;;;;5116768;28;20473;-85
2022/07/04 09:52:50;;;;;;;8.13;4.53;;;921.80;1100.80;;;;;;5083973;28;20110;-86
2022/07/04 09:55:33;;;;;;;8.50;5.03;;;921.90;1126.40;;;;;;5083776;28;20543;-84
2022/07/04 09:58:08;;;;;;;14.55;4.95;;;922.00;1126.40;;;;;;5098527;28;20031;-84
2022/07/04 10:00:36;;;;;;;7.53;4.55;;;922.10;1126.40;;;;;;5116423;28;20058;-82
2022/07/04 10:03:22;;;;;;;8.63;4.63;;;922.40;1100.80;;;;;;5112585;28;20126;-85
2022/07/04 10:06:03;;;;;;;8.27;4.88;;;922.40;1126.40;;;;;;5098017;28;20092;-85
2022/07/04 10:08:29;;;;;;;7.20;4.45;;;922.50;1100.80;;;;;;5085387;28;20027;-82
2022/07/04 10:10:59;;;;;;;11.98;5.00;;;922.50;1075.20;;;;;;5102790;28;20012;-81
2022/07/04 10:13:26;;;;;;;8.30;4.90;;;922.50;1075.20;;;;;;5109505;28;20012;-81
2022/07/04 10:15:52;;;;;;;15.68;4.90;;;947.20;1075.20;;;;;;5108714;28;20104;-84
2022/07/04 10:18:20;;;;;;;6.43;5.07;;;947.30;1049.60;;;;;;5098247;28;20023;-85
2022/07/04 10:20:48;;;;;;;5.80;4.35;;;947.20;1049.60;;;;;;5098208;28;20024;-83
2022/07/04 10:23:15;;;;;;;8.60;4.13;;;947.30;1024.00;;;;;;5098663;28;20024;-83
2022/07/04 10:25:41;;;;;;;12.40;4.57;;;947.60;1049.60;;;;;;5115614;28;20043;-84
2022/07/04 10:28:08;;;;;;;8.43;4.60;;;947.60;1049.60;;;;;;5098053;28;20495;-88
2022/07/04 10:30:36;;;;;;;19.20;4.82;;;947.90;1049.60;;;;;;5097421;28;20030;-82
2022/07/04 10:33:03;;;;;;;7.32;4.68;;;947.90;1024.00;;;;;;5097459;28;20070;-81
2022/07/04 10:35:48;;;;;;;7.10;4.03;;;948.10;1024.00;;;;;;5096457;28;20028;-81
2022/07/04 10:38:16;;;;;;;10.40;4.67;;;948.10;998.40;;;;;;5097057;28;20043;-82
2022/07/04 10:40:56;;;;;;;10.20;4.03;;;948.00;998.40;;;;;;5115197;28;20191;-84
2022/07/04 10:46:06;;;;;;;10.32;4.30;;;972.80;998.40;;;;;;5115226;28;20042;-81
2022/07/04 10:48:32;;;;;;;4.82;4.18;;;948.00;1024.00;;;;;;5115098;28;20011;-80
2022/07/04 10:51:08;;;;;;;9.18;4.32;;;948.00;998.40;;;;;;5090044;28;20024;-81
2022/07/04 10:54:01;;;;;;;11.55;4.78;;;948.10;998.40;;;;;;5107645;28;20055;-81
2022/07/04 10:56:26;;;;;;;6.38;4.00;;;973.00;998.40;;;;;;5102711;27;20378;-81
2022/07/04 10:58:54;;;;;;;6.40;4.22;;;973.10;998.40;;;;;;5104594;28;20038;-82
2022/07/04 11:01:19;;;;;;;7.40;4.65;;;973.20;998.40;;;;;;5096219;28;20024;-83
2022/07/04 11:03:52;;;;;;;15.10;5.10;;;973.20;998.40;;;;;;5114836;28;20024;-85
2022/07/04 11:06:33;;;;;;;5.72;3.88;;;973.30;972.80;;;;;;5110568;27;20028;-84
2022/07/04 11:09:16;;;;;;;10.02;4.40;;;973.20;947.20;;;;;;5084947;28;20032;-79
2022/07/04 11:12:01;;;;;;;10.43;5.38;;;973.30;972.80;;;;;;5075857;28;20031;-82
2022/07/04 11:14:39;;;;;;;12.38;5.38;;;973.60;947.20;;;;;;5090326;28;20035;-80
2022/07/04 11:17:09;;;;;;;8.70;5.50;;;973.40;947.20;;;;;;5095792;28;20047;-79
2022/07/04 11:19:36;;;;;;;9.82;6.22;;;973.60;921.60;;;;;;5114018;28;20091;-79
2022/07/04 11:22:04;;;;;;;10.25;6.80;;;973.70;921.60;;;;;;5113919;28;20020;-82
2022/07/04 11:24:29;;;;;;;12.43;7.28;;;973.70;921.60;;;;;;5088684;28;20123;-80
2022/07/04 11:26:55;;;;;;;12.73;6.47;;;973.70;921.60;;;;;;5095948;28;20114;-83
2022/07/04 11:29:21;;;;;;;8.15;6.55;;;973.70;921.60;;;;;;5089579;28;20030;-83
2022/07/04 11:31:49;;;;;;;13.43;8.95;;;973.10;947.20;;;;;;5095960;28;20029;-88
2022/07/04 11:34:15;;;;;;;11.05;7.05;;;973.00;947.20;;;;;;5096389;28;20027;-89
2022/07/04 11:36:44;;;;;;;10.68;5.88;;;973.10;947.20;;;;;;5088472;28;20069;-83
2022/07/04 11:39:18;;;;;;;8.68;5.38;;;973.20;921.60;;;;;;5090232;28;20047;-84
2022/07/04 11:47:35;;;;;;;6.40;5.22;;;998.40;921.60;;;;;;5112905;28;20503;-84
2022/07/04 11:50:02;;;;;;;18.55;6.45;;;973.60;921.60;;;;;;5094376;28;20118;-83
2022/07/04 11:52:30;;;;;;;7.95;5.38;;;973.20;947.20;;;;;;5095740;28;20031;-79
2022/07/04 11:54:57;;;;;;;9.07;4.97;;;972.80;921.60;;;;;;5069432;28;20036;-80
2022/07/04 11:57:29;;;;;;;4.75;4.10;;;973.10;921.60;;;;;;5103393;27;20287;-81
2022/07/04 11:59:59;;;;;;;7.43;4.85;;;998.40;947.20;;;;;;5100674;28;20019;-84
2022/07/04 12:02:27;;;;;;;9.02;4.43;;;998.80;921.60;;;;;;5083333;28;20024;-84
2022/07/04 12:04:53;;;;;;;5.88;4.13;;;973.70;896.00;;;;;;5094886;28;20036;-80
2022/07/04 12:07:22;;;;;;;6.22;4.18;;;998.40;921.60;;;;;;5113853;28;20051;-81
2022/07/04 12:09:48;;;;;;;6.35;4.40;;;998.80;896.00;;;;;;5096008;28;20023;-80
2022/07/04 12:12:16;;;;;;;11.55;4.50;;;998.60;921.60;;;;;;5095479;28;20110;-81
2022/07/04 12:14:59;;;;;;;9.05;4.07;;;998.80;921.60;;;;;;5099980;28;20023;-80
2022/07/04 12:17:32;;;;;;;7.00;4.22;;;998.80;921.60;;;;;;5100691;28;20385;-80
2022/07/04 12:20:00;;;;;;;5.63;3.58;;;998.60;896.00;;;;;;5117000;28;20534;-79
2022/07/04 12:22:37;;;;;;;7.43;4.50;;;998.80;921.60;;;;;;5115319;28;20026;-79
2022/07/04 12:25:05;;;;;;;9.93;4.45;;;998.90;896.00;;;;;;5093329;28;20489;-80